sensor_id;sensor_type;location;lat;lon;timestamp;temperature;humidity
22416;DHT22;12204;50.600;4.608;2024-01-16T00:01:24;21.60;60.30
22416;DHT22;12204;50.600;4.608;2024-01-16T00:06:27;21.60;60.40
22416;DHT22;12204;50.600;4.608;2024-01-16T00:11:31;21.60;60.40
22416;DHT22;12204;50.600;4.608;2024-01-16T00:16:41;21.50;60.50
22416;DHT22;12204;50.600;4.608;2024-01-16T00:21:45;21.50;60.70
22416;DHT22;12204;50.600;4.608;2024-01-16T00:26:49;21.50;60.70
22416;DHT22;12204;50.600;4.608;2024-01-16T00:31:54;21.50;60.50
22416;DHT22;12204;50.600;4.608;2024-01-16T00:36:58;21.40;60.30
22416;DHT22;12204;50.600;4.608;2024-01-16T00:42:01;21.40;60.40
22416;DHT22;12204;50.600;4.608;2024-01-16T00:47:06;21.40;60.60
22416;DHT22;12204;50.600;4.608;2024-01-16T00:52:10;21.50;61.00
22416;DHT22;12204;50.600;4.608;2024-01-16T00:57:13;21.60;61.50
22416;DHT22;12204;50.600;4.608;2024-01-16T01:02:22;21.70;61.60
22416;DHT22;12204;50.600;4.608;2024-01-16T01:07:25;21.80;61.70
22416;DHT22;12204;50.600;4.608;2024-01-16T01:12:29;21.90;61.80
22416;DHT22;12204;50.600;4.608;2024-01-16T01:17:34;22.00;61.70
22416;DHT22;12204;50.600;4.608;2024-01-16T01:22:38;22.00;61.50
22416;DHT22;12204;50.600;4.608;2024-01-16T01:27:41;22.10;61.40
22416;DHT22;12204;50.600;4.608;2024-01-16T01:32:46;22.10;61.30
22416;DHT22;12204;50.600;4.608;2024-01-16T01:37:50;22.20;61.40
22416;DHT22;12204;50.600;4.608;2024-01-16T01:42:53;22.20;61.60
22416;DHT22;12204;50.600;4.608;2024-01-16T01:47:58;22.20;61.60
22416;DHT22;12204;50.600;4.608;2024-01-16T01:53:03;22.20;61.60
22416;DHT22;12204;50.600;4.608;2024-01-16T01:58:07;22.20;61.40
22416;DHT22;12204;50.600;4.608;2024-01-16T02:03:12;22.20;61.90
22416;DHT22;12204;50.600;4.608;2024-01-16T02:08:16;22.20;61.70
22416;DHT22;12204;50.600;4.608;2024-01-16T02:13:20;22.20;61.10
22416;DHT22;12204;50.600;4.608;2024-01-16T02:18:26;22.20;61.10
22416;DHT22;12204;50.600;4.608;2024-01-16T02:23:31;22.10;61.20
22416;DHT22;12204;50.600;4.608;2024-01-16T02:28:36;22.10;61.30
22416;DHT22;12204;50.600;4.608;2024-01-16T02:33:39;22.10;61.20
22416;DHT22;12204;50.600;4.608;2024-01-16T02:38:44;22.00;59.70
22416;DHT22;12204;50.600;4.608;2024-01-16T02:43:48;22.00;59.60
22416;DHT22;12204;50.600;4.608;2024-01-16T02:48:51;21.90;59.80
22416;DHT22;12204;50.600;4.608;2024-01-16T02:53:56;21.90;59.80
22416;DHT22;12204;50.600;4.608;2024-01-16T02:59:00;21.90;59.80
22416;DHT22;12204;50.600;4.608;2024-01-16T03:04:03;21.90;60.00
22416;DHT22;12204;50.600;4.608;2024-01-16T03:09:08;21.90;60.10
22416;DHT22;12204;50.600;4.608;2024-01-16T03:14:13;21.80;61.00
22416;DHT22;12204;50.600;4.608;2024-01-16T03:19:17;21.70;60.20
22416;DHT22;12204;50.600;4.608;2024-01-16T03:24:22;21.70;60.40
22416;DHT22;12204;50.600;4.608;2024-01-16T03:29:25;21.70;60.50
22416;DHT22;12204;50.600;4.608;2024-01-16T03:34:30;21.60;60.60
22416;DHT22;12204;50.600;4.608;2024-01-16T03:39:35;21.60;60.80
22416;DHT22;12204;50.600;4.608;2024-01-16T03:44:39;21.60;60.70
22416;DHT22;12204;50.600;4.608;2024-01-16T03:49:43;21.50;60.90
22416;DHT22;12204;50.600;4.608;2024-01-16T03:54:48;21.50;61.00
22416;DHT22;12204;50.600;4.608;2024-01-16T03:59:51;21.50;61.10
22416;DHT22;12204;50.600;4.608;2024-01-16T04:04:55;21.70;61.30
22416;DHT22;12204;50.600;4.608;2024-01-16T04:10:00;21.80;61.00
22416;DHT22;12204;50.600;4.608;2024-01-16T04:15:05;21.90;60.90
22416;DHT22;12204;50.600;4.608;2024-01-16T04:20:11;22.10;61.20
22416;DHT22;12204;50.600;4.608;2024-01-16T04:25:16;22.20;61.10
22416;DHT22;12204;50.600;4.608;2024-01-16T04:30:20;22.30;61.10
22416;DHT22;12204;50.600;4.608;2024-01-16T04:35:23;22.40;60.90
22416;DHT22;12204;50.600;4.608;2024-01-16T04:40:28;22.40;60.40
22416;DHT22;12204;50.600;4.608;2024-01-16T04:45:32;22.40;60.60
22416;DHT22;12204;50.600;4.608;2024-01-16T04:50:35;22.50;60.70
22416;DHT22;12204;50.600;4.608;2024-01-16T04:55:40;22.50;60.20
22416;DHT22;12204;50.600;4.608;2024-01-16T05:00:44;22.50;60.10
22416;DHT22;12204;50.600;4.608;2024-01-16T05:05:47;22.50;60.00
22416;DHT22;12204;50.600;4.608;2024-01-16T05:10:53;22.50;60.10
22416;DHT22;12204;50.600;4.608;2024-01-16T05:15:56;22.40;60.00
22416;DHT22;12204;50.600;4.608;2024-01-16T05:21:00;22.40;59.60
22416;DHT22;12204;50.600;4.608;2024-01-16T05:26:05;22.40;59.30
22416;DHT22;12204;50.600;4.608;2024-01-16T05:31:09;22.40;58.90
22416;DHT22;12204;50.600;4.608;2024-01-16T05:36:12;22.30;58.90
22416;DHT22;12204;50.600;4.608;2024-01-16T05:41:17;22.30;59.10
22416;DHT22;12204;50.600;4.608;2024-01-16T05:46:20;22.30;59.10
22416;DHT22;12204;50.600;4.608;2024-01-16T05:51:25;22.30;59.30
22416;DHT22;12204;50.600;4.608;2024-01-16T05:56:32;22.20;59.50
22416;DHT22;12204;50.600;4.608;2024-01-16T06:01:36;22.20;59.40
22416;DHT22;12204;50.600;4.608;2024-01-16T06:06:40;22.20;59.50
22416;DHT22;12204;50.600;4.608;2024-01-16T06:11:48;22.10;59.60
22416;DHT22;12204;50.600;4.608;2024-01-16T06:16:51;22.10;59.70
22416;DHT22;12204;50.600;4.608;2024-01-16T06:21:54;22.10;59.80
22416;DHT22;12204;50.600;4.608;2024-01-16T06:26:59;22.10;59.80
22416;DHT22;12204;50.600;4.608;2024-01-16T06:32:03;22.00;59.80
22416;DHT22;12204;50.600;4.608;2024-01-16T06:37:07;22.00;60.00
22416;DHT22;12204;50.600;4.608;2024-01-16T06:42:12;22.00;59.90
22416;DHT22;12204;50.600;4.608;2024-01-16T06:47:15;22.00;59.90
22416;DHT22;12204;50.600;4.608;2024-01-16T06:52:19;22.00;60.00
22416;DHT22;12204;50.600;4.608;2024-01-16T06:57:24;22.00;60.10
22416;DHT22;12204;50.600;4.608;2024-01-16T07:02:27;22.00;60.20
22416;DHT22;12204;50.600;4.608;2024-01-16T07:07:31;22.00;60.00
22416;DHT22;12204;50.600;4.608;2024-01-16T07:12:35;21.90;59.90
22416;DHT22;12204;50.600;4.608;2024-01-16T07:17:39;21.90;60.20
22416;DHT22;12204;50.600;4.608;2024-01-16T07:22:43;21.90;60.30
22416;DHT22;12204;50.600;4.608;2024-01-16T07:27:48;21.90;60.10
22416;DHT22;12204;50.600;4.608;2024-01-16T07:32:52;21.90;60.10
22416;DHT22;12204;50.600;4.608;2024-01-16T07:37:55;21.90;60.20
22416;DHT22;12204;50.600;4.608;2024-01-16T07:43:02;21.90;60.20
22416;DHT22;12204;50.600;4.608;2024-01-16T07:48:06;21.90;60.30
22416;DHT22;12204;50.600;4.608;2024-01-16T07:53:10;21.90;60.40
22416;DHT22;12204;50.600;4.608;2024-01-16T07:58:15;21.90;60.10
22416;DHT22;12204;50.600;4.608;2024-01-16T08:03:18;21.90;60.20
22416;DHT22;12204;50.600;4.608;2024-01-16T08:08:22;21.80;60.60
22416;DHT22;12204;50.600;4.608;2024-01-16T08:13:26;21.80;60.40
22416;DHT22;12204;50.600;4.608;2024-01-16T08:18:30;21.80;60.30
22416;DHT22;12204;50.600;4.608;2024-01-16T08:23:34;21.80;60.30
22416;DHT22;12204;50.600;4.608;2024-01-16T08:28:39;21.80;60.70
22416;DHT22;12204;50.600;4.608;2024-01-16T08:33:42;21.80;60.70
22416;DHT22;12204;50.600;4.608;2024-01-16T08:38:49;21.80;60.80
22416;DHT22;12204;50.600;4.608;2024-01-16T08:43:54;21.80;60.90
22416;DHT22;12204;50.600;4.608;2024-01-16T08:48:58;21.70;60.80
22416;DHT22;12204;50.600;4.608;2024-01-16T08:54:01;21.70;60.90
22416;DHT22;12204;50.600;4.608;2024-01-16T08:59:06;21.70;61.10
22416;DHT22;12204;50.600;4.608;2024-01-16T09:04:10;21.70;60.60
22416;DHT22;12204;50.600;4.608;2024-01-16T09:09:13;21.60;60.80
22416;DHT22;12204;50.600;4.608;2024-01-16T09:14:19;21.60;60.80
22416;DHT22;12204;50.600;4.608;2024-01-16T09:19:23;21.50;61.40
22416;DHT22;12204;50.600;4.608;2024-01-16T09:24:28;21.40;59.50
22416;DHT22;12204;50.600;4.608;2024-01-16T09:29:33;21.20;58.00
22416;DHT22;12204;50.600;4.608;2024-01-16T09:34:36;21.00;56.70
22416;DHT22;12204;50.600;4.608;2024-01-16T09:39:41;20.80;55.70
22416;DHT22;12204;50.600;4.608;2024-01-16T09:44:46;20.70;54.80
22416;DHT22;12204;50.600;4.608;2024-01-16T09:49:52;20.50;54.20
22416;DHT22;12204;50.600;4.608;2024-01-16T09:54:56;20.50;54.30
22416;DHT22;12204;50.600;4.608;2024-01-16T10:00:02;20.40;53.20
22416;DHT22;12204;50.600;4.608;2024-01-16T10:05:07;20.60;57.00
22416;DHT22;12204;50.600;4.608;2024-01-16T10:10:11;20.90;55.50
22416;DHT22;12204;50.600;4.608;2024-01-16T10:15:28;21.00;55.90
22416;DHT22;12204;50.600;4.608;2024-01-16T10:20:32;21.20;56.10
22416;DHT22;12204;50.600;4.608;2024-01-16T10:25:37;21.30;56.30
22416;DHT22;12204;50.600;4.608;2024-01-16T10:30:41;21.40;56.60
22416;DHT22;12204;50.600;4.608;2024-01-16T10:35:45;21.40;57.00
22416;DHT22;12204;50.600;4.608;2024-01-16T10:41:04;21.40;57.30
22416;DHT22;12204;50.600;4.608;2024-01-16T10:46:12;21.40;57.30
22416;DHT22;12204;50.600;4.608;2024-01-16T10:51:17;21.40;57.80
22416;DHT22;12204;50.600;4.608;2024-01-16T10:56:20;21.40;58.00
22416;DHT22;12204;50.600;4.608;2024-01-16T11:01:26;21.40;57.80
22416;DHT22;12204;50.600;4.608;2024-01-16T11:06:31;21.30;57.70
22416;DHT22;12204;50.600;4.608;2024-01-16T11:11:36;21.30;57.70
22416;DHT22;12204;50.600;4.608;2024-01-16T11:16:42;21.30;58.10
22416;DHT22;12204;50.600;4.608;2024-01-16T11:21:47;21.30;58.40
22416;DHT22;12204;50.600;4.608;2024-01-16T11:26:51;21.20;58.70
22416;DHT22;12204;50.600;4.608;2024-01-16T11:31:57;21.20;58.90
22416;DHT22;12204;50.600;4.608;2024-01-16T11:37:27;21.20;59.40
22416;DHT22;12204;50.600;4.608;2024-01-16T11:42:31;21.20;60.00
22416;DHT22;12204;50.600;4.608;2024-01-16T11:47:36;21.20;60.20
22416;DHT22;12204;50.600;4.608;2024-01-16T11:52:42;21.20;59.90
22416;DHT22;12204;50.600;4.608;2024-01-16T11:58:00;21.10;59.90
22416;DHT22;12204;50.600;4.608;2024-01-16T12:03:21;21.10;60.20
22416;DHT22;12204;50.600;4.608;2024-01-16T12:08:36;21.00;60.70
22416;DHT22;12204;50.600;4.608;2024-01-16T12:13:39;21.00;61.00
22416;DHT22;12204;50.600;4.608;2024-01-16T12:18:44;21.00;61.20
22416;DHT22;12204;50.600;4.608;2024-01-16T12:23:50;20.90;61.20
22416;DHT22;12204;50.600;4.608;2024-01-16T12:29:09;20.90;61.30
22416;DHT22;12204;50.600;4.608;2024-01-16T12:34:15;20.80;60.90
22416;DHT22;12204;50.600;4.608;2024-01-16T12:39:19;20.80;61.60
22416;DHT22;12204;50.600;4.608;2024-01-16T12:44:26;20.80;61.10
22416;DHT22;12204;50.600;4.608;2024-01-16T12:49:32;20.70;61.10
22416;DHT22;12204;50.600;4.608;2024-01-16T12:54:36;20.70;61.20
22416;DHT22;12204;50.600;4.608;2024-01-16T12:59:39;20.60;61.20
22416;DHT22;12204;50.600;4.608;2024-01-16T13:04:45;20.60;61.00
22416;DHT22;12204;50.600;4.608;2024-01-16T13:09:48;20.60;61.10
22416;DHT22;12204;50.600;4.608;2024-01-16T13:14:51;20.50;61.10
22416;DHT22;12204;50.600;4.608;2024-01-16T13:19:57;20.50;61.30
22416;DHT22;12204;50.600;4.608;2024-01-16T13:25:00;20.40;61.30
22416;DHT22;12204;50.600;4.608;2024-01-16T13:30:11;20.40;61.40
22416;DHT22;12204;50.600;4.608;2024-01-16T13:35:18;20.40;61.40
22416;DHT22;12204;50.600;4.608;2024-01-16T13:40:21;20.40;61.40
22416;DHT22;12204;50.600;4.608;2024-01-16T13:45:26;20.40;61.60
22416;DHT22;12204;50.600;4.608;2024-01-16T13:50:31;20.40;61.50
22416;DHT22;12204;50.600;4.608;2024-01-16T13:55:36;20.30;61.50
22416;DHT22;12204;50.600;4.608;2024-01-16T14:00:39;20.30;61.70
22416;DHT22;12204;50.600;4.608;2024-01-16T14:05:46;20.30;61.70
22416;DHT22;12204;50.600;4.608;2024-01-16T14:10:49;20.30;61.80
22416;DHT22;12204;50.600;4.608;2024-01-16T14:15:53;20.30;61.80
22416;DHT22;12204;50.600;4.608;2024-01-16T14:20:58;20.20;61.80
22416;DHT22;12204;50.600;4.608;2024-01-16T14:26:02;20.20;62.00
22416;DHT22;12204;50.600;4.608;2024-01-16T14:31:06;20.20;62.00
22416;DHT22;12204;50.600;4.608;2024-01-16T14:36:11;20.20;62.20
22416;DHT22;12204;50.600;4.608;2024-01-16T14:41:15;20.20;62.20
22416;DHT22;12204;50.600;4.608;2024-01-16T14:46:19;20.20;62.30
22416;DHT22;12204;50.600;4.608;2024-01-16T14:51:26;20.20;62.30
22416;DHT22;12204;50.600;4.608;2024-01-16T14:56:30;20.10;62.40
22416;DHT22;12204;50.600;4.608;2024-01-16T15:01:34;20.10;62.50
22416;DHT22;12204;50.600;4.608;2024-01-16T15:06:39;20.10;62.60
22416;DHT22;12204;50.600;4.608;2024-01-16T15:11:43;20.10;62.70
22416;DHT22;12204;50.600;4.608;2024-01-16T15:16:50;20.10;62.80
22416;DHT22;12204;50.600;4.608;2024-01-16T15:21:55;20.10;62.80
22416;DHT22;12204;50.600;4.608;2024-01-16T15:26:59;20.00;62.90
22416;DHT22;12204;50.600;4.608;2024-01-16T15:32:03;20.00;62.90
22416;DHT22;12204;50.600;4.608;2024-01-16T15:37:08;20.00;62.90
22416;DHT22;12204;50.600;4.608;2024-01-16T15:42:12;19.90;62.90
22416;DHT22;12204;50.600;4.608;2024-01-16T15:47:15;19.90;63.00
22416;DHT22;12204;50.600;4.608;2024-01-16T15:52:20;19.90;63.10
22416;DHT22;12204;50.600;4.608;2024-01-16T15:57:24;19.80;63.20
22416;DHT22;12204;50.600;4.608;2024-01-16T16:02:27;19.80;63.20
22416;DHT22;12204;50.600;4.608;2024-01-16T16:07:32;19.70;63.20
22416;DHT22;12204;50.600;4.608;2024-01-16T16:12:35;19.70;63.30
22416;DHT22;12204;50.600;4.608;2024-01-16T16:17:39;19.70;63.30
22416;DHT22;12204;50.600;4.608;2024-01-16T16:22:44;19.70;63.30
22416;DHT22;12204;50.600;4.608;2024-01-16T16:27:49;19.70;64.20
22416;DHT22;12204;50.600;4.608;2024-01-16T16:32:52;19.60;63.40
22416;DHT22;12204;50.600;4.608;2024-01-16T16:37:57;19.60;63.40
22416;DHT22;12204;50.600;4.608;2024-01-16T16:43:00;19.60;63.40
22416;DHT22;12204;50.600;4.608;2024-01-16T16:48:06;19.60;63.50
22416;DHT22;12204;50.600;4.608;2024-01-16T16:53:11;19.50;63.50
22416;DHT22;12204;50.600;4.608;2024-01-16T16:58:14;19.50;63.60
22416;DHT22;12204;50.600;4.608;2024-01-16T17:03:17;19.50;63.70
22416;DHT22;12204;50.600;4.608;2024-01-16T17:08:23;19.40;63.90
22416;DHT22;12204;50.600;4.608;2024-01-16T17:13:28;19.40;64.00
22416;DHT22;12204;50.600;4.608;2024-01-16T17:18:33;19.40;64.20
22416;DHT22;12204;50.600;4.608;2024-01-16T17:23:41;19.40;64.30
22416;DHT22;12204;50.600;4.608;2024-01-16T17:28:46;19.40;64.40
22416;DHT22;12204;50.600;4.608;2024-01-16T17:33:50;19.40;64.50
22416;DHT22;12204;50.600;4.608;2024-01-16T17:38:56;19.40;64.60
22416;DHT22;12204;50.600;4.608;2024-01-16T17:44:02;19.40;65.30
22416;DHT22;12204;50.600;4.608;2024-01-16T17:49:07;19.30;64.60
22416;DHT22;12204;50.600;4.608;2024-01-16T17:54:12;19.30;64.70
22416;DHT22;12204;50.600;4.608;2024-01-16T17:59:16;19.30;64.80
22416;DHT22;12204;50.600;4.608;2024-01-16T18:04:21;19.30;65.10
22416;DHT22;12204;50.600;4.608;2024-01-16T18:09:25;19.40;65.70
22416;DHT22;12204;50.600;4.608;2024-01-16T18:14:30;19.50;65.60
22416;DHT22;12204;50.600;4.608;2024-01-16T18:19:34;19.80;65.80
22416;DHT22;12204;50.600;4.608;2024-01-16T18:24:39;20.10;65.10
22416;DHT22;12204;50.600;4.608;2024-01-16T18:29:42;20.50;64.40
22416;DHT22;12204;50.600;4.608;2024-01-16T18:34:46;20.70;63.80
22416;DHT22;12204;50.600;4.608;2024-01-16T18:39:51;20.90;63.30
22416;DHT22;12204;50.600;4.608;2024-01-16T18:44:55;21.00;63.00
22416;DHT22;12204;50.600;4.608;2024-01-16T18:49:58;21.10;62.70
22416;DHT22;12204;50.600;4.608;2024-01-16T18:55:04;21.10;62.50
22416;DHT22;12204;50.600;4.608;2024-01-16T19:00:12;21.20;62.40
22416;DHT22;12204;50.600;4.608;2024-01-16T19:05:17;21.20;62.20
22416;DHT22;12204;50.600;4.608;2024-01-16T19:10:22;21.20;62.10
22416;DHT22;12204;50.600;4.608;2024-01-16T19:15:26;21.20;62.10
22416;DHT22;12204;50.600;4.608;2024-01-16T19:20:29;21.20;62.00
22416;DHT22;12204;50.600;4.608;2024-01-16T19:25:34;21.20;62.00
22416;DHT22;12204;50.600;4.608;2024-01-16T19:30:38;21.20;61.90
22416;DHT22;12204;50.600;4.608;2024-01-16T19:35:41;21.10;62.10
22416;DHT22;12204;50.600;4.608;2024-01-16T19:40:46;21.10;62.40
22416;DHT22;12204;50.600;4.608;2024-01-16T19:45:51;21.00;62.50
22416;DHT22;12204;50.600;4.608;2024-01-16T19:50:55;21.00;62.60
22416;DHT22;12204;50.600;4.608;2024-01-16T19:56:00;21.00;63.00
22416;DHT22;12204;50.600;4.608;2024-01-16T20:01:07;21.00;64.00
22416;DHT22;12204;50.600;4.608;2024-01-16T20:06:11;21.00;64.10
22416;DHT22;12204;50.600;4.608;2024-01-16T20:11:24;20.90;63.40
22416;DHT22;12204;50.600;4.608;2024-01-16T20:16:30;20.90;63.80
22416;DHT22;12204;50.600;4.608;2024-01-16T20:21:35;20.90;63.90
22416;DHT22;12204;50.600;4.608;2024-01-16T20:26:40;21.00;63.90
22416;DHT22;12204;50.600;4.608;2024-01-16T20:31:43;21.20;63.60
22416;DHT22;12204;50.600;4.608;2024-01-16T20:36:48;21.20;64.00
22416;DHT22;12204;50.600;4.608;2024-01-16T20:41:58;21.30;63.00
22416;DHT22;12204;50.600;4.608;2024-01-16T20:47:03;21.30;62.80
22416;DHT22;12204;50.600;4.608;2024-01-16T20:52:07;21.40;62.70
22416;DHT22;12204;50.600;4.608;2024-01-16T20:57:12;21.40;62.60
22416;DHT22;12204;50.600;4.608;2024-01-16T21:02:16;21.40;62.50
22416;DHT22;12204;50.600;4.608;2024-01-16T21:07:19;21.40;62.40
22416;DHT22;12204;50.600;4.608;2024-01-16T21:12:26;21.40;62.30
22416;DHT22;12204;50.600;4.608;2024-01-16T21:17:29;21.30;62.30
22416;DHT22;12204;50.600;4.608;2024-01-16T21:22:33;21.30;62.30
22416;DHT22;12204;50.600;4.608;2024-01-16T21:27:39;21.30;62.30
22416;DHT22;12204;50.600;4.608;2024-01-16T21:32:43;21.20;62.50
22416;DHT22;12204;50.600;4.608;2024-01-16T21:37:46;21.20;62.60
22416;DHT22;12204;50.600;4.608;2024-01-16T21:42:51;21.10;62.70
22416;DHT22;12204;50.600;4.608;2024-01-16T21:47:55;21.10;62.70
22416;DHT22;12204;50.600;4.608;2024-01-16T21:52:58;21.10;62.70
22416;DHT22;12204;50.600;4.608;2024-01-16T21:58:03;21.10;62.60
22416;DHT22;12204;50.600;4.608;2024-01-16T22:03:07;21.20;62.60
22416;DHT22;12204;50.600;4.608;2024-01-16T22:08:10;21.30;62.50
22416;DHT22;12204;50.600;4.608;2024-01-16T22:13:15;21.40;62.30
22416;DHT22;12204;50.600;4.608;2024-01-16T22:18:20;21.50;62.10
22416;DHT22;12204;50.600;4.608;2024-01-16T22:23:23;21.60;62.00
22416;DHT22;12204;50.600;4.608;2024-01-16T22:28:28;21.70;61.90
22416;DHT22;12204;50.600;4.608;2024-01-16T22:33:32;21.70;61.60
22416;DHT22;12204;50.600;4.608;2024-01-16T22:38:36;21.90;61.60
22416;DHT22;12204;50.600;4.608;2024-01-16T22:43:44;22.10;61.50
22416;DHT22;12204;50.600;4.608;2024-01-16T22:48:47;22.20;62.20
22416;DHT22;12204;50.600;4.608;2024-01-16T22:53:51;22.20;61.80
22416;DHT22;12204;50.600;4.608;2024-01-16T22:58:55;22.30;61.60
22416;DHT22;12204;50.600;4.608;2024-01-16T23:04:04;22.30;61.10
22416;DHT22;12204;50.600;4.608;2024-01-16T23:09:08;22.30;60.90
22416;DHT22;12204;50.600;4.608;2024-01-16T23:14:13;22.30;60.90
22416;DHT22;12204;50.600;4.608;2024-01-16T23:19:17;22.40;60.50
22416;DHT22;12204;50.600;4.608;2024-01-16T23:24:21;22.40;60.30
22416;DHT22;12204;50.600;4.608;2024-01-16T23:29:25;22.40;59.90
22416;DHT22;12204;50.600;4.608;2024-01-16T23:34:31;22.30;60.00
22416;DHT22;12204;50.600;4.608;2024-01-16T23:39:38;22.30;60.00
22416;DHT22;12204;50.600;4.608;2024-01-16T23:44:43;22.20;60.20
22416;DHT22;12204;50.600;4.608;2024-01-16T23:49:47;22.20;60.10
22416;DHT22;12204;50.600;4.608;2024-01-16T23:54:50;22.20;59.60
22416;DHT22;12204;50.600;4.608;2024-01-16T23:59:55;22.10;59.70
